TimePDT,TemperatureF,Dew PointF,Humidity,Sea Level PressureIn,VisibilityMPH,Wind Direction,Wind SpeedMPH,Gust SpeedMPH,PrecipitationIn,Events,Conditions,WindDirDegrees,DateUTC
12:53 AM,75.9,54.0,46,29.90,10.0,NW,3.5,-,N/A,,Clear,320,2013-06-29 07:53:00
1:53 AM,73.9,53.1,48,29.89,10.0,Calm,Calm,-,N/A,,Clear,0,2013-06-29 08:53:00
2:53 AM,72.0,54.0,53,29.89,10.0,Calm,Calm,-,N/A,,Clear,0,2013-06-29 09:53:00
3:53 AM,70.0,52.0,53,29.89,10.0,East,3.5,-,N/A,,Clear,80,2013-06-29 10:53:00
4:53 AM,68.0,52.0,56,29.89,10.0,Calm,Calm,-,N/A,,Clear,0,2013-06-29 11:53:00
5:53 AM,66.9,52.0,59,29.90,10.0,Calm,Calm,-,N/A,,Clear,0,2013-06-29 12:53:00
6:53 AM,70.0,53.1,55,29.90,10.0,Calm,Calm,-,N/A,,Clear,0,2013-06-29 13:53:00
7:53 AM,75.0,52.0,44,29.89,10.0,Calm,Calm,-,N/A,,Clear,0,2013-06-29 14:53:00
8:53 AM,81.0,52.0,36,29.90,10.0,WSW,4.6,-,N/A,,Clear,240,2013-06-29 15:53:00
9:53 AM,89.1,48.0,24,29.89,10.0,WNW,4.6,-,N/A,,Clear,290,2013-06-29 16:53:00
10:53 AM,93.0,46.9,20,29.88,10.0,Calm,Calm,-,N/A,,Clear,0,2013-06-29 17:53:00
11:53 AM,97.0,48.9,19,29.86,10.0,SSW,6.9,-,N/A,,Clear,210,2013-06-29 18:53:00
12:53 PM,102.0,50.0,17,29.85,10.0,WSW,6.9,-,N/A,,Clear,250,2013-06-29 19:53:00
1:53 PM,102.9,48.9,16,29.83,10.0,SW,10.4,-,N/A,,Clear,220,2013-06-29 20:53:00
2:53 PM,105.1,48.9,15,29.82,10.0,West,10.4,18.4,N/A,,Clear,280,2013-06-29 21:53:00
3:53 PM,102.9,52.0,18,29.80,10.0,West,12.7,-,N/A,,Clear,280,2013-06-29 22:53:00
4:53 PM,102.0,54.0,20,29.79,10.0,West,15.0,-,N/A,,Clear,260,2013-06-29 23:53:00
5:53 PM,99.0,52.0,21,29.78,10.0,West,13.8,-,N/A,,Clear,270,2013-06-30 00:53:00
6:53 PM,96.1,54.0,24,29.78,10.0,WNW,11.5,-,N/A,,Clear,290,2013-06-30 01:53:00
7:53 PM,90.0,55.9,31,29.78,10.0,WNW,10.4,-,N/A,,Clear,300,2013-06-30 02:53:00
8:53 PM,84.9,54.0,34,29.80,10.0,SSE,3.5,-,N/A,,Clear,150,2013-06-30 03:53:00
9:53 PM,81.0,53.1,38,29.81,10.0,West,5.8,-,N/A,,Clear,280,2013-06-30 04:53:00
10:53 PM,79.0,54.0,42,29.82,10.0,West,6.9,-,N/A,,Clear,280,2013-06-30 05:53:00
11:53 PM,75.9,52.0,43,29.82,10.0,West,4.6,-,N/A,,Clear,280,2013-06-30 06:53:00